sensor_id;sensor_type;location;lat;lon;timestamp;P1;durP1;ratioP1;P2;durP2;ratioP2
37047;SDS011;23227;48.780;9.210;2023-04-21T00:00:37;14.03;;;8.50;;
37047;SDS011;23227;48.780;9.210;2023-04-21T00:03:40;14.48;;;9.32;;
37047;SDS011;23227;48.780;9.210;2023-04-21T00:09:48;15.07;;;7.70;;
37047;SDS011;23227;48.780;9.210;2023-04-21T00:12:51;16.03;;;8.47;;
37047;SDS011;23227;48.780;9.210;2023-04-21T00:15:53;17.50;;;9.57;;
37047;SDS011;23227;48.780;9.210;2023-04-21T00:18:56;14.70;;;8.73;;
37047;SDS011;23227;48.780;9.210;2023-04-21T00:21:59;13.90;;;8.15;;
37047;SDS011;23227;48.780;9.210;2023-04-21T00:25:03;14.13;;;8.63;;
37047;SDS011;23227;48.780;9.210;2023-04-21T00:28:07;12.47;;;7.93;;
37047;SDS011;23227;48.780;9.210;2023-04-21T00:31:09;12.27;;;8.70;;
37047;SDS011;23227;48.780;9.210;2023-04-21T00:34:12;13.13;;;7.40;;
37047;SDS011;23227;48.780;9.210;2023-04-21T00:37:14;13.90;;;8.27;;
37047;SDS011;23227;48.780;9.210;2023-04-21T00:40:18;13.17;;;8.33;;
37047;SDS011;23227;48.780;9.210;2023-04-21T00:43:21;18.80;;;9.13;;
37047;SDS011;23227;48.780;9.210;2023-04-21T00:46:25;15.67;;;7.80;;
37047;SDS011;23227;48.780;9.210;2023-04-21T00:49:28;17.43;;;9.17;;
37047;SDS011;23227;48.780;9.210;2023-04-21T00:52:31;15.70;;;9.53;;
37047;SDS011;23227;48.780;9.210;2023-04-21T00:55:36;15.15;;;8.43;;
37047;SDS011;23227;48.780;9.210;2023-04-21T01:01:41;13.73;;;8.60;;
37047;SDS011;23227;48.780;9.210;2023-04-21T01:04:44;15.63;;;9.95;;
37047;SDS011;23227;48.780;9.210;2023-04-21T01:07:47;16.13;;;9.57;;
37047;SDS011;23227;48.780;9.210;2023-04-21T01:10:51;16.73;;;9.15;;
37047;SDS011;23227;48.780;9.210;2023-04-21T01:16:56;19.37;;;9.27;;
37047;SDS011;23227;48.780;9.210;2023-04-21T01:19:59;16.10;;;10.02;;
37047;SDS011;23227;48.780;9.210;2023-04-21T01:26:07;18.45;;;10.82;;
37047;SDS011;23227;48.780;9.210;2023-04-21T01:29:10;20.33;;;10.57;;
37047;SDS011;23227;48.780;9.210;2023-04-21T01:32:13;19.53;;;11.13;;
37047;SDS011;23227;48.780;9.210;2023-04-21T01:35:17;21.17;;;11.43;;
37047;SDS011;23227;48.780;9.210;2023-04-21T01:38:21;18.43;;;10.77;;
37047;SDS011;23227;48.780;9.210;2023-04-21T01:41:24;20.67;;;11.67;;
37047;SDS011;23227;48.780;9.210;2023-04-21T01:44:26;20.57;;;12.20;;
37047;SDS011;23227;48.780;9.210;2023-04-21T01:47:29;22.67;;;12.53;;
37047;SDS011;23227;48.780;9.210;2023-04-21T01:50:31;23.80;;;12.57;;
37047;SDS011;23227;48.780;9.210;2023-04-21T01:53:35;23.00;;;12.00;;
37047;SDS011;23227;48.780;9.210;2023-04-21T01:59:40;20.53;;;10.87;;
37047;SDS011;23227;48.780;9.210;2023-04-21T02:02:43;17.97;;;11.23;;
37047;SDS011;23227;48.780;9.210;2023-04-21T02:05:46;21.87;;;11.47;;
37047;SDS011;23227;48.780;9.210;2023-04-21T02:08:49;21.13;;;11.97;;
37047;SDS011;23227;48.780;9.210;2023-04-21T02:11:53;22.47;;;11.73;;
37047;SDS011;23227;48.780;9.210;2023-04-21T02:14:57;21.23;;;12.03;;
37047;SDS011;23227;48.780;9.210;2023-04-21T02:18:00;21.70;;;11.73;;
37047;SDS011;23227;48.780;9.210;2023-04-21T02:21:02;21.27;;;11.37;;
37047;SDS011;23227;48.780;9.210;2023-04-21T02:24:07;19.92;;;11.52;;
37047;SDS011;23227;48.780;9.210;2023-04-21T02:27:09;21.03;;;11.63;;
37047;SDS011;23227;48.780;9.210;2023-04-21T02:30:12;20.30;;;11.03;;
37047;SDS011;23227;48.780;9.210;2023-04-21T02:33:14;20.40;;;11.57;;
37047;SDS011;23227;48.780;9.210;2023-04-21T02:36:17;20.20;;;10.97;;
37047;SDS011;23227;48.780;9.210;2023-04-21T02:39:21;20.47;;;11.33;;
37047;SDS011;23227;48.780;9.210;2023-04-21T02:45:26;22.20;;;11.57;;
37047;SDS011;23227;48.780;9.210;2023-04-21T02:48:28;25.60;;;13.60;;
37047;SDS011;23227;48.780;9.210;2023-04-21T02:51:31;25.73;;;12.90;;
37047;SDS011;23227;48.780;9.210;2023-04-21T02:54:35;23.40;;;12.60;;
37047;SDS011;23227;48.780;9.210;2023-04-21T03:00:40;23.13;;;11.90;;
37047;SDS011;23227;48.780;9.210;2023-04-21T03:03:42;25.17;;;13.10;;
37047;SDS011;23227;48.780;9.210;2023-04-21T03:06:45;26.27;;;13.77;;
37047;SDS011;23227;48.780;9.210;2023-04-21T03:09:49;28.57;;;13.73;;
37047;SDS011;23227;48.780;9.210;2023-04-21T03:12:52;27.43;;;13.33;;
37047;SDS011;23227;48.780;9.210;2023-04-21T03:18:58;25.77;;;12.93;;
37047;SDS011;23227;48.780;9.210;2023-04-21T03:22:01;29.80;;;13.80;;
37047;SDS011;23227;48.780;9.210;2023-04-21T03:25:05;27.73;;;13.30;;
37047;SDS011;23227;48.780;9.210;2023-04-21T03:28:08;25.07;;;13.50;;
37047;SDS011;23227;48.780;9.210;2023-04-21T03:31:11;30.23;;;14.43;;
37047;SDS011;23227;48.780;9.210;2023-04-21T03:34:13;29.63;;;14.00;;
37047;SDS011;23227;48.780;9.210;2023-04-21T03:37:16;27.63;;;14.63;;
37047;SDS011;23227;48.780;9.210;2023-04-21T03:40:20;28.53;;;14.13;;
37047;SDS011;23227;48.780;9.210;2023-04-21T03:43:23;28.73;;;14.53;;
37047;SDS011;23227;48.780;9.210;2023-04-21T03:46:25;30.87;;;14.67;;
37047;SDS011;23227;48.780;9.210;2023-04-21T03:49:28;28.53;;;15.53;;
37047;SDS011;23227;48.780;9.210;2023-04-21T03:52:31;25.65;;;14.10;;
37047;SDS011;23227;48.780;9.210;2023-04-21T03:55:36;27.73;;;15.17;;
37047;SDS011;23227;48.780;9.210;2023-04-21T03:58:38;33.07;;;18.63;;
37047;SDS011;23227;48.780;9.210;2023-04-21T04:01:41;30.73;;;13.63;;
37047;SDS011;23227;48.780;9.210;2023-04-21T04:04:43;29.50;;;14.67;;
37047;SDS011;23227;48.780;9.210;2023-04-21T04:07:46;28.00;;;14.73;;
37047;SDS011;23227;48.780;9.210;2023-04-21T04:10:50;26.27;;;13.90;;
37047;SDS011;23227;48.780;9.210;2023-04-21T04:16:55;27.70;;;14.00;;
37047;SDS011;23227;48.780;9.210;2023-04-21T04:19:57;25.93;;;13.93;;
37047;SDS011;23227;48.780;9.210;2023-04-21T04:23:00;25.23;;;14.13;;
37047;SDS011;23227;48.780;9.210;2023-04-21T04:26:04;30.80;;;16.03;;
37047;SDS011;23227;48.780;9.210;2023-04-21T04:29:06;27.00;;;13.97;;
37047;SDS011;23227;48.780;9.210;2023-04-21T04:32:10;26.53;;;14.10;;
37047;SDS011;23227;48.780;9.210;2023-04-21T04:35:13;28.48;;;14.43;;
37047;SDS011;23227;48.780;9.210;2023-04-21T04:38:16;31.17;;;14.57;;
37047;SDS011;23227;48.780;9.210;2023-04-21T04:41:20;28.13;;;14.52;;
37047;SDS011;23227;48.780;9.210;2023-04-21T04:44:24;28.90;;;14.23;;
37047;SDS011;23227;48.780;9.210;2023-04-21T04:47:26;29.37;;;15.73;;
37047;SDS011;23227;48.780;9.210;2023-04-21T04:50:29;26.23;;;14.25;;
37047;SDS011;23227;48.780;9.210;2023-04-21T04:53:32;30.73;;;14.80;;
37047;SDS011;23227;48.780;9.210;2023-04-21T04:56:36;28.87;;;15.63;;
37047;SDS011;23227;48.780;9.210;2023-04-21T04:59:39;27.50;;;14.33;;
37047;SDS011;23227;48.780;9.210;2023-04-21T05:02:42;29.90;;;14.77;;
37047;SDS011;23227;48.780;9.210;2023-04-21T05:05:45;28.15;;;15.35;;
37047;SDS011;23227;48.780;9.210;2023-04-21T05:08:47;31.93;;;15.73;;
37047;SDS011;23227;48.780;9.210;2023-04-21T05:11:51;35.30;;;16.13;;
37047;SDS011;23227;48.780;9.210;2023-04-21T05:14:54;28.53;;;15.20;;
37047;SDS011;23227;48.780;9.210;2023-04-21T05:17:56;30.47;;;15.77;;
37047;SDS011;23227;48.780;9.210;2023-04-21T05:20:59;30.10;;;15.33;;
37047;SDS011;23227;48.780;9.210;2023-04-21T05:24:01;29.37;;;15.77;;
37047;SDS011;23227;48.780;9.210;2023-04-21T05:27:05;30.03;;;15.50;;
37047;SDS011;23227;48.780;9.210;2023-04-21T05:30:08;29.13;;;16.53;;
37047;SDS011;23227;48.780;9.210;2023-04-21T05:33:11;31.05;;;15.75;;
37047;SDS011;23227;48.780;9.210;2023-04-21T05:36:14;29.90;;;15.23;;
37047;SDS011;23227;48.780;9.210;2023-04-21T05:39:17;30.10;;;16.57;;
37047;SDS011;23227;48.780;9.210;2023-04-21T05:42:21;28.53;;;15.07;;
37047;SDS011;23227;48.780;9.210;2023-04-21T05:45:23;28.57;;;16.47;;
37047;SDS011;23227;48.780;9.210;2023-04-21T05:48:26;32.97;;;16.97;;
37047;SDS011;23227;48.780;9.210;2023-04-21T05:51:29;28.38;;;14.95;;
37047;SDS011;23227;48.780;9.210;2023-04-21T05:54:32;29.35;;;15.52;;
37047;SDS011;23227;48.780;9.210;2023-04-21T05:57:36;30.70;;;15.87;;
37047;SDS011;23227;48.780;9.210;2023-04-21T06:00:39;27.17;;;15.03;;
37047;SDS011;23227;48.780;9.210;2023-04-21T06:03:41;33.33;;;15.57;;
37047;SDS011;23227;48.780;9.210;2023-04-21T06:06:44;27.42;;;15.60;;
37047;SDS011;23227;48.780;9.210;2023-04-21T06:09:48;29.07;;;14.77;;
37047;SDS011;23227;48.780;9.210;2023-04-21T06:12:53;27.10;;;15.00;;
37047;SDS011;23227;48.780;9.210;2023-04-21T06:15:56;28.00;;;15.03;;
37047;SDS011;23227;48.780;9.210;2023-04-21T06:18:58;27.90;;;15.15;;
37047;SDS011;23227;48.780;9.210;2023-04-21T06:22:01;27.98;;;15.82;;
37047;SDS011;23227;48.780;9.210;2023-04-21T06:25:04;27.83;;;15.23;;
37047;SDS011;23227;48.780;9.210;2023-04-21T06:28:08;26.25;;;14.90;;
37047;SDS011;23227;48.780;9.210;2023-04-21T06:34:15;26.60;;;14.37;;
37047;SDS011;23227;48.780;9.210;2023-04-21T06:37:20;27.43;;;14.73;;
37047;SDS011;23227;48.780;9.210;2023-04-21T06:40:23;30.10;;;14.80;;
37047;SDS011;23227;48.780;9.210;2023-04-21T06:43:27;24.10;;;14.93;;
37047;SDS011;23227;48.780;9.210;2023-04-21T06:46:29;25.80;;;14.93;;
37047;SDS011;23227;48.780;9.210;2023-04-21T06:49:32;25.23;;;13.83;;
37047;SDS011;23227;48.780;9.210;2023-04-21T06:52:35;24.73;;;14.20;;
37047;SDS011;23227;48.780;9.210;2023-04-21T06:55:37;24.57;;;13.53;;
37047;SDS011;23227;48.780;9.210;2023-04-21T06:58:41;24.20;;;13.90;;
37047;SDS011;23227;48.780;9.210;2023-04-21T07:01:44;24.37;;;13.30;;
37047;SDS011;23227;48.780;9.210;2023-04-21T07:04:49;26.77;;;14.80;;
37047;SDS011;23227;48.780;9.210;2023-04-21T07:07:51;27.40;;;13.37;;
37047;SDS011;23227;48.780;9.210;2023-04-21T07:10:57;26.03;;;14.13;;
37047;SDS011;23227;48.780;9.210;2023-04-21T07:14:00;27.43;;;14.03;;
37047;SDS011;23227;48.780;9.210;2023-04-21T07:17:03;27.40;;;14.47;;
37047;SDS011;23227;48.780;9.210;2023-04-21T07:20:06;25.67;;;14.70;;
37047;SDS011;23227;48.780;9.210;2023-04-21T07:26:12;27.40;;;14.67;;
37047;SDS011;23227;48.780;9.210;2023-04-21T07:29:16;26.30;;;15.10;;
37047;SDS011;23227;48.780;9.210;2023-04-21T07:32:19;26.73;;;13.80;;
37047;SDS011;23227;48.780;9.210;2023-04-21T07:35:22;24.77;;;13.32;;
37047;SDS011;23227;48.780;9.210;2023-04-21T07:38:25;24.93;;;13.17;;
37047;SDS011;23227;48.780;9.210;2023-04-21T07:41:27;22.97;;;13.73;;
37047;SDS011;23227;48.780;9.210;2023-04-21T07:44:31;21.47;;;12.47;;
37047;SDS011;23227;48.780;9.210;2023-04-21T07:47:34;18.73;;;11.30;;
37047;SDS011;23227;48.780;9.210;2023-04-21T07:50:37;19.15;;;11.57;;
37047;SDS011;23227;48.780;9.210;2023-04-21T07:53:39;20.45;;;12.43;;
37047;SDS011;23227;48.780;9.210;2023-04-21T07:56:42;17.77;;;11.73;;
37047;SDS011;23227;48.780;9.210;2023-04-21T07:59:46;19.27;;;11.20;;
37047;SDS011;23227;48.780;9.210;2023-04-21T08:02:48;22.07;;;11.53;;
37047;SDS011;23227;48.780;9.210;2023-04-21T08:05:51;19.85;;;10.68;;
37047;SDS011;23227;48.780;9.210;2023-04-21T08:08:54;18.63;;;10.35;;
37047;SDS011;23227;48.780;9.210;2023-04-21T08:11:57;20.43;;;11.13;;
37047;SDS011;23227;48.780;9.210;2023-04-21T08:15:01;17.13;;;10.53;;
37047;SDS011;23227;48.780;9.210;2023-04-21T08:18:06;15.83;;;10.37;;
37047;SDS011;23227;48.780;9.210;2023-04-21T08:21:09;15.17;;;9.87;;
37047;SDS011;23227;48.780;9.210;2023-04-21T08:24:12;18.13;;;10.25;;
37047;SDS011;23227;48.780;9.210;2023-04-21T08:27:15;13.37;;;8.10;;
37047;SDS011;23227;48.780;9.210;2023-04-21T08:30:19;20.13;;;10.53;;
37047;SDS011;23227;48.780;9.210;2023-04-21T08:33:21;18.23;;;10.57;;
37047;SDS011;23227;48.780;9.210;2023-04-21T08:36:24;17.23;;;10.53;;
37047;SDS011;23227;48.780;9.210;2023-04-21T08:39:30;17.10;;;10.70;;
37047;SDS011;23227;48.780;9.210;2023-04-21T08:42:33;20.30;;;10.87;;
37047;SDS011;23227;48.780;9.210;2023-04-21T08:45:38;16.67;;;9.70;;
37047;SDS011;23227;48.780;9.210;2023-04-21T08:48:41;19.93;;;9.40;;
37047;SDS011;23227;48.780;9.210;2023-04-21T08:51:44;19.35;;;9.50;;
37047;SDS011;23227;48.780;9.210;2023-04-21T08:54:47;14.80;;;7.75;;
37047;SDS011;23227;48.780;9.210;2023-04-21T08:57:53;16.87;;;8.60;;
37047;SDS011;23227;48.780;9.210;2023-04-21T09:00:56;13.30;;;7.97;;
37047;SDS011;23227;48.780;9.210;2023-04-21T09:04:14;15.30;;;9.23;;
37047;SDS011;23227;48.780;9.210;2023-04-21T09:07:28;13.97;;;8.93;;
37047;SDS011;23227;48.780;9.210;2023-04-21T09:10:32;15.03;;;8.83;;
37047;SDS011;23227;48.780;9.210;2023-04-21T09:13:35;16.33;;;9.07;;
37047;SDS011;23227;48.780;9.210;2023-04-21T09:16:40;12.57;;;7.03;;
37047;SDS011;23227;48.780;9.210;2023-04-21T09:19:44;9.57;;;6.00;;
37047;SDS011;23227;48.780;9.210;2023-04-21T09:22:47;8.80;;;5.10;;
37047;SDS011;23227;48.780;9.210;2023-04-21T09:25:51;10.00;;;4.93;;
37047;SDS011;23227;48.780;9.210;2023-04-21T09:28:55;6.50;;;4.47;;
37047;SDS011;23227;48.780;9.210;2023-04-21T09:31:59;7.97;;;4.35;;
37047;SDS011;23227;48.780;9.210;2023-04-21T09:35:03;6.70;;;4.93;;
37047;SDS011;23227;48.780;9.210;2023-04-21T09:38:08;13.73;;;5.30;;
37047;SDS011;23227;48.780;9.210;2023-04-21T09:41:12;8.67;;;4.30;;
37047;SDS011;23227;48.780;9.210;2023-04-21T09:44:18;9.00;;;5.00;;
37047;SDS011;23227;48.780;9.210;2023-04-21T09:47:23;6.90;;;4.10;;
37047;SDS011;23227;48.780;9.210;2023-04-21T09:50:28;6.93;;;4.80;;
37047;SDS011;23227;48.780;9.210;2023-04-21T09:53:34;7.23;;;4.87;;
37047;SDS011;23227;48.780;9.210;2023-04-21T09:56:40;8.40;;;3.53;;
37047;SDS011;23227;48.780;9.210;2023-04-21T09:59:44;8.03;;;4.50;;
37047;SDS011;23227;48.780;9.210;2023-04-21T10:02:49;8.27;;;5.18;;
37047;SDS011;23227;48.780;9.210;2023-04-21T10:05:52;6.43;;;4.47;;
37047;SDS011;23227;48.780;9.210;2023-04-21T10:08:55;7.45;;;4.93;;
37047;SDS011;23227;48.780;9.210;2023-04-21T10:11:59;8.47;;;5.73;;
37047;SDS011;23227;48.780;9.210;2023-04-21T10:15:03;8.70;;;5.07;;
37047;SDS011;23227;48.780;9.210;2023-04-21T10:18:11;9.30;;;5.10;;
37047;SDS011;23227;48.780;9.210;2023-04-21T10:21:16;9.90;;;5.33;;
37047;SDS011;23227;48.780;9.210;2023-04-21T10:24:21;10.63;;;6.63;;
37047;SDS011;23227;48.780;9.210;2023-04-21T10:27:30;10.40;;;6.90;;
37047;SDS011;23227;48.780;9.210;2023-04-21T10:30:34;10.83;;;5.73;;
37047;SDS011;23227;48.780;9.210;2023-04-21T10:33:39;9.93;;;5.85;;
37047;SDS011;23227;48.780;9.210;2023-04-21T10:36:42;11.93;;;6.83;;
37047;SDS011;23227;48.780;9.210;2023-04-21T10:39:51;11.17;;;6.33;;
37047;SDS011;23227;48.780;9.210;2023-04-21T10:42:54;11.47;;;6.00;;
37047;SDS011;23227;48.780;9.210;2023-04-21T10:45:57;10.23;;;6.47;;
37047;SDS011;23227;48.780;9.210;2023-04-21T10:49:08;9.55;;;6.40;;
37047;SDS011;23227;48.780;9.210;2023-04-21T10:52:11;10.50;;;6.13;;
37047;SDS011;23227;48.780;9.210;2023-04-21T10:55:16;10.43;;;6.50;;
37047;SDS011;23227;48.780;9.210;2023-04-21T10:58:19;13.32;;;6.38;;
37047;SDS011;23227;48.780;9.210;2023-04-21T11:01:24;10.17;;;6.10;;
37047;SDS011;23227;48.780;9.210;2023-04-21T11:04:28;11.27;;;5.95;;
37047;SDS011;23227;48.780;9.210;2023-04-21T11:07:32;10.07;;;6.27;;
37047;SDS011;23227;48.780;9.210;2023-04-21T11:10:48;10.88;;;5.63;;
37047;SDS011;23227;48.780;9.210;2023-04-21T11:13:53;10.83;;;5.37;;
37047;SDS011;23227;48.780;9.210;2023-04-21T11:16:55;8.00;;;5.20;;
37047;SDS011;23227;48.780;9.210;2023-04-21T11:20:00;7.60;;;5.18;;
37047;SDS011;23227;48.780;9.210;2023-04-21T11:23:04;9.30;;;5.20;;
37047;SDS011;23227;48.780;9.210;2023-04-21T11:26:06;8.75;;;5.03;;
37047;SDS011;23227;48.780;9.210;2023-04-21T11:29:09;9.07;;;5.60;;
37047;SDS011;23227;48.780;9.210;2023-04-21T11:32:13;10.07;;;5.03;;
37047;SDS011;23227;48.780;9.210;2023-04-21T11:41:23;7.50;;;4.82;;
37047;SDS011;23227;48.780;9.210;2023-04-21T11:44:30;7.20;;;4.82;;
37047;SDS011;23227;48.780;9.210;2023-04-21T11:47:34;7.63;;;5.03;;
37047;SDS011;23227;48.780;9.210;2023-04-21T11:50:39;7.43;;;4.63;;
37047;SDS011;23227;48.780;9.210;2023-04-21T11:53:41;8.33;;;5.20;;
37047;SDS011;23227;48.780;9.210;2023-04-21T11:56:45;10.05;;;5.68;;
37047;SDS011;23227;48.780;9.210;2023-04-21T11:59:48;7.03;;;4.60;;
37047;SDS011;23227;48.780;9.210;2023-04-21T12:02:55;6.78;;;4.47;;
37047;SDS011;23227;48.780;9.210;2023-04-21T12:06:00;8.33;;;5.10;;
37047;SDS011;23227;48.780;9.210;2023-04-21T12:09:02;9.40;;;4.60;;
37047;SDS011;23227;48.780;9.210;2023-04-21T12:12:05;6.43;;;4.38;;
37047;SDS011;23227;48.780;9.210;2023-04-21T12:15:09;6.22;;;4.22;;
37047;SDS011;23227;48.780;9.210;2023-04-21T12:18:12;9.97;;;5.00;;
37047;SDS011;23227;48.780;9.210;2023-04-21T12:21:17;6.80;;;4.63;;
37047;SDS011;23227;48.780;9.210;2023-04-21T12:24:19;7.43;;;3.70;;
37047;SDS011;23227;48.780;9.210;2023-04-21T12:27:22;5.93;;;3.78;;
37047;SDS011;23227;48.780;9.210;2023-04-21T12:30:25;9.35;;;3.88;;
37047;SDS011;23227;48.780;9.210;2023-04-21T12:33:27;7.43;;;4.30;;
37047;SDS011;23227;48.780;9.210;2023-04-21T12:36:32;6.72;;;3.97;;
37047;SDS011;23227;48.780;9.210;2023-04-21T12:39:36;6.00;;;4.03;;
37047;SDS011;23227;48.780;9.210;2023-04-21T12:42:39;4.35;;;3.30;;
37047;SDS011;23227;48.780;9.210;2023-04-21T12:45:42;3.78;;;3.10;;
37047;SDS011;23227;48.780;9.210;2023-04-21T12:48:44;3.92;;;3.03;;
37047;SDS011;23227;48.780;9.210;2023-04-21T12:51:50;6.03;;;3.77;;
37047;SDS011;23227;48.780;9.210;2023-04-21T12:54:52;3.00;;;2.53;;
37047;SDS011;23227;48.780;9.210;2023-04-21T12:57:56;4.20;;;2.83;;
37047;SDS011;23227;48.780;9.210;2023-04-21T13:00:59;3.65;;;2.70;;
37047;SDS011;23227;48.780;9.210;2023-04-21T13:07:06;4.65;;;2.90;;
37047;SDS011;23227;48.780;9.210;2023-04-21T13:10:09;4.75;;;2.95;;
37047;SDS011;23227;48.780;9.210;2023-04-21T13:13:12;3.40;;;2.25;;
37047;SDS011;23227;48.780;9.210;2023-04-21T13:16:15;3.25;;;2.60;;
37047;SDS011;23227;48.780;9.210;2023-04-21T13:22:21;4.93;;;2.33;;
37047;SDS011;23227;48.780;9.210;2023-04-21T13:25:24;2.60;;;1.98;;
37047;SDS011;23227;48.780;9.210;2023-04-21T13:31:30;3.60;;;2.60;;
37047;SDS011;23227;48.780;9.210;2023-04-21T13:34:33;2.92;;;2.50;;
37047;SDS011;23227;48.780;9.210;2023-04-21T13:37:37;2.70;;;2.30;;
37047;SDS011;23227;48.780;9.210;2023-04-21T13:40:40;4.68;;;2.70;;
37047;SDS011;23227;48.780;9.210;2023-04-21T13:43:43;4.03;;;2.70;;
37047;SDS011;23227;48.780;9.210;2023-04-21T13:46:45;3.28;;;2.22;;
37047;SDS011;23227;48.780;9.210;2023-04-21T13:52:53;3.90;;;2.30;;
37047;SDS011;23227;48.780;9.210;2023-04-21T13:55:55;6.35;;;2.20;;
37047;SDS011;23227;48.780;9.210;2023-04-21T13:58:59;2.15;;;1.90;;
37047;SDS011;23227;48.780;9.210;2023-04-21T14:05:05;3.03;;;2.47;;
37047;SDS011;23227;48.780;9.210;2023-04-21T14:08:09;4.00;;;2.17;;
37047;SDS011;23227;48.780;9.210;2023-04-21T14:11:12;3.97;;;2.33;;
37047;SDS011;23227;48.780;9.210;2023-04-21T14:17:37;2.20;;;1.90;;
37047;SDS011;23227;48.780;9.210;2023-04-21T14:20:39;4.05;;;1.70;;
37047;SDS011;23227;48.780;9.210;2023-04-21T14:23:44;1.83;;;1.45;;
37047;SDS011;23227;48.780;9.210;2023-04-21T14:26:46;5.47;;;1.40;;
37047;SDS011;23227;48.780;9.210;2023-04-21T14:29:49;2.58;;;1.30;;
37047;SDS011;23227;48.780;9.210;2023-04-21T14:35:54;2.22;;;1.60;;
37047;SDS011;23227;48.780;9.210;2023-04-21T14:38:58;1.20;;;1.08;;
37047;SDS011;23227;48.780;9.210;2023-04-21T14:42:01;4.10;;;1.55;;
37047;SDS011;23227;48.780;9.210;2023-04-21T14:45:04;2.50;;;1.23;;
37047;SDS011;23227;48.780;9.210;2023-04-21T14:48:07;1.48;;;1.30;;
37047;SDS011;23227;48.780;9.210;2023-04-21T14:51:11;1.05;;;0.95;;
37047;SDS011;23227;48.780;9.210;2023-04-21T14:54:15;2.38;;;1.08;;
37047;SDS011;23227;48.780;9.210;2023-04-21T14:57:18;1.90;;;1.20;;
37047;SDS011;23227;48.780;9.210;2023-04-21T15:00:22;2.70;;;1.13;;
37047;SDS011;23227;48.780;9.210;2023-04-21T15:03:26;2.78;;;1.20;;
37047;SDS011;23227;48.780;9.210;2023-04-21T15:06:28;1.50;;;1.30;;
37047;SDS011;23227;48.780;9.210;2023-04-21T15:09:33;2.05;;;1.40;;
37047;SDS011;23227;48.780;9.210;2023-04-21T15:12:38;1.95;;;1.50;;
37047;SDS011;23227;48.780;9.210;2023-04-21T15:15:42;2.53;;;1.20;;
37047;SDS011;23227;48.780;9.210;2023-04-21T15:18:45;2.70;;;1.30;;
37047;SDS011;23227;48.780;9.210;2023-04-21T15:21:47;2.42;;;1.15;;
37047;SDS011;23227;48.780;9.210;2023-04-21T15:24:51;1.80;;;1.17;;
37047;SDS011;23227;48.780;9.210;2023-04-21T15:27:55;2.00;;;1.27;;
37047;SDS011;23227;48.780;9.210;2023-04-21T15:30:57;2.42;;;1.80;;
37047;SDS011;23227;48.780;9.210;2023-04-21T15:34:00;1.65;;;1.33;;
37047;SDS011;23227;48.780;9.210;2023-04-21T15:37:03;2.05;;;1.23;;
37047;SDS011;23227;48.780;9.210;2023-04-21T15:43:11;5.65;;;1.40;;
37047;SDS011;23227;48.780;9.210;2023-04-21T15:46:13;1.38;;;1.15;;
37047;SDS011;23227;48.780;9.210;2023-04-21T15:49:16;1.20;;;1.10;;
37047;SDS011;23227;48.780;9.210;2023-04-21T15:52:19;1.73;;;1.10;;
37047;SDS011;23227;48.780;9.210;2023-04-21T15:55:23;1.30;;;1.20;;
37047;SDS011;23227;48.780;9.210;2023-04-21T15:58:28;1.40;;;1.10;;
37047;SDS011;23227;48.780;9.210;2023-04-21T16:01:30;2.95;;;1.30;;
37047;SDS011;23227;48.780;9.210;2023-04-21T16:04:33;3.70;;;1.50;;
37047;SDS011;23227;48.780;9.210;2023-04-21T16:07:37;1.85;;;1.50;;
37047;SDS011;23227;48.780;9.210;2023-04-21T16:10:41;3.20;;;1.55;;
37047;SDS011;23227;48.780;9.210;2023-04-21T16:13:43;3.20;;;1.60;;
37047;SDS011;23227;48.780;9.210;2023-04-21T16:16:46;2.45;;;1.50;;
37047;SDS011;23227;48.780;9.210;2023-04-21T16:22:51;1.85;;;1.58;;
37047;SDS011;23227;48.780;9.210;2023-04-21T16:25:55;2.28;;;1.45;;
37047;SDS011;23227;48.780;9.210;2023-04-21T16:28:58;1.95;;;1.50;;
37047;SDS011;23227;48.780;9.210;2023-04-21T16:32:00;1.90;;;1.40;;
37047;SDS011;23227;48.780;9.210;2023-04-21T16:38:08;2.30;;;1.70;;
37047;SDS011;23227;48.780;9.210;2023-04-21T16:44:18;2.70;;;1.65;;
37047;SDS011;23227;48.780;9.210;2023-04-21T16:47:20;2.05;;;1.67;;
37047;SDS011;23227;48.780;9.210;2023-04-21T16:50:23;2.17;;;1.35;;
37047;SDS011;23227;48.780;9.210;2023-04-21T16:53:26;2.88;;;1.55;;
37047;SDS011;23227;48.780;9.210;2023-04-21T16:56:30;2.10;;;1.60;;
37047;SDS011;23227;48.780;9.210;2023-04-21T16:59:33;2.83;;;1.67;;
37047;SDS011;23227;48.780;9.210;2023-04-21T17:02:36;5.43;;;1.55;;
37047;SDS011;23227;48.780;9.210;2023-04-21T17:05:39;2.53;;;1.58;;
37047;SDS011;23227;48.780;9.210;2023-04-21T17:08:41;2.35;;;1.75;;
37047;SDS011;23227;48.780;9.210;2023-04-21T17:11:45;3.92;;;1.88;;
37047;SDS011;23227;48.780;9.210;2023-04-21T17:14:48;2.90;;;1.80;;
37047;SDS011;23227;48.780;9.210;2023-04-21T17:17:51;10.30;;;3.58;;
37047;SDS011;23227;48.780;9.210;2023-04-21T17:20:54;3.88;;;2.50;;
37047;SDS011;23227;48.780;9.210;2023-04-21T17:23:56;1.67;;;1.40;;
37047;SDS011;23227;48.780;9.210;2023-04-21T17:27:01;2.88;;;1.92;;
37047;SDS011;23227;48.780;9.210;2023-04-21T17:30:04;1.83;;;1.20;;
37047;SDS011;23227;48.780;9.210;2023-04-21T17:33:07;2.77;;;1.17;;
37047;SDS011;23227;48.780;9.210;2023-04-21T17:36:15;2.37;;;1.30;;
37047;SDS011;23227;48.780;9.210;2023-04-21T17:39:18;1.20;;;1.10;;
37047;SDS011;23227;48.780;9.210;2023-04-21T17:42:22;1.77;;;1.17;;
37047;SDS011;23227;48.780;9.210;2023-04-21T17:45:24;1.37;;;1.20;;
37047;SDS011;23227;48.780;9.210;2023-04-21T17:48:27;1.73;;;1.00;;
37047;SDS011;23227;48.780;9.210;2023-04-21T17:51:30;1.92;;;1.20;;
37047;SDS011;23227;48.780;9.210;2023-04-21T17:54:32;6.50;;;3.90;;
37047;SDS011;23227;48.780;9.210;2023-04-21T17:57:38;6.60;;;3.20;;
37047;SDS011;23227;48.780;9.210;2023-04-21T18:00:40;10.00;;;3.60;;
37047;SDS011;23227;48.780;9.210;2023-04-21T18:03:43;7.43;;;3.20;;
37047;SDS011;23227;48.780;9.210;2023-04-21T18:06:47;15.03;;;5.50;;
37047;SDS011;23227;48.780;9.210;2023-04-21T18:09:51;13.27;;;5.67;;
37047;SDS011;23227;48.780;9.210;2023-04-21T18:12:55;14.43;;;7.13;;
37047;SDS011;23227;48.780;9.210;2023-04-21T18:15:57;19.87;;;7.47;;
37047;SDS011;23227;48.780;9.210;2023-04-21T18:19:00;7.78;;;4.68;;
37047;SDS011;23227;48.780;9.210;2023-04-21T18:22:03;5.03;;;2.40;;
37047;SDS011;23227;48.780;9.210;2023-04-21T18:25:06;5.85;;;2.55;;
37047;SDS011;23227;48.780;9.210;2023-04-21T18:28:11;2.73;;;2.00;;
37047;SDS011;23227;48.780;9.210;2023-04-21T18:31:14;3.93;;;1.80;;
37047;SDS011;23227;48.780;9.210;2023-04-21T18:34:17;3.38;;;1.85;;
37047;SDS011;23227;48.780;9.210;2023-04-21T18:37:19;4.70;;;1.20;;
37047;SDS011;23227;48.780;9.210;2023-04-21T18:40:22;2.17;;;1.92;;
37047;SDS011;23227;48.780;9.210;2023-04-21T18:43:26;2.17;;;1.42;;
37047;SDS011;23227;48.780;9.210;2023-04-21T18:46:29;3.20;;;1.90;;
37047;SDS011;23227;48.780;9.210;2023-04-21T18:49:32;3.95;;;2.00;;
37047;SDS011;23227;48.780;9.210;2023-04-21T18:52:34;4.13;;;2.00;;
37047;SDS011;23227;48.780;9.210;2023-04-21T18:55:37;3.45;;;1.83;;
37047;SDS011;23227;48.780;9.210;2023-04-21T18:58:41;3.28;;;1.90;;
37047;SDS011;23227;48.780;9.210;2023-04-21T19:01:44;2.33;;;1.70;;
37047;SDS011;23227;48.780;9.210;2023-04-21T19:04:47;2.45;;;1.92;;
37047;SDS011;23227;48.780;9.210;2023-04-21T19:07:50;3.40;;;1.75;;
37047;SDS011;23227;48.780;9.210;2023-04-21T19:10:53;2.67;;;1.60;;
37047;SDS011;23227;48.780;9.210;2023-04-21T19:13:57;2.47;;;1.52;;
37047;SDS011;23227;48.780;9.210;2023-04-21T19:17:00;2.77;;;1.53;;
37047;SDS011;23227;48.780;9.210;2023-04-21T19:20:03;3.25;;;2.13;;
37047;SDS011;23227;48.780;9.210;2023-04-21T19:23:07;5.10;;;1.67;;